createdAt,value
2024-02-07T00:00:36.965Z,0.97
2024-02-07T00:03:05.585Z,1.10
2024-02-07T00:05:33.821Z,1.20
2024-02-07T00:08:02.583Z,0.90
2024-02-07T00:10:32.127Z,0.90
2024-02-07T00:13:00.165Z,0.87
2024-02-07T00:15:28.821Z,1.13
2024-02-07T00:17:58.068Z,1.20
2024-02-07T00:20:26.188Z,1.00
2024-02-07T00:22:54.345Z,1.20
2024-02-07T00:25:22.427Z,1.10
2024-02-07T00:27:52.026Z,1.13
2024-02-07T00:30:28.319Z,1.20
2024-02-07T00:33:03.407Z,1.27
2024-02-07T00:35:31.558Z,1.30
2024-02-07T00:37:59.730Z,1.30
2024-02-07T00:40:28.379Z,1.07
2024-02-07T00:42:58.856Z,1.20
2024-02-07T00:45:27.164Z,0.87
2024-02-07T00:47:55.274Z,1.20
2024-02-07T00:50:23.489Z,1.20
2024-02-07T00:52:51.764Z,1.23
2024-02-07T00:55:19.885Z,1.30
2024-02-07T00:57:50.193Z,1.20
2024-02-07T01:00:20.745Z,1.60
2024-02-07T01:02:48.789Z,1.37
2024-02-07T01:05:16.878Z,1.60
2024-02-07T01:07:45.031Z,1.43
2024-02-07T01:10:13.129Z,1.20
2024-02-07T01:12:41.545Z,1.33
2024-02-07T01:15:09.669Z,1.07
2024-02-07T01:17:40.228Z,1.67
2024-02-07T01:20:12.004Z,1.47
2024-02-07T01:22:40.451Z,1.43
2024-02-07T01:25:08.984Z,1.30
2024-02-07T01:27:37.586Z,1.63
2024-02-07T01:30:08.392Z,1.10
2024-02-07T01:32:36.514Z,1.30
2024-02-07T01:35:08.264Z,1.40
2024-02-07T01:37:36.433Z,1.47
2024-02-07T01:40:04.871Z,1.13
2024-02-07T01:42:33.827Z,1.27
2024-02-07T01:45:23.757Z,1.23
2024-02-07T01:47:52.783Z,1.50
2024-02-07T01:50:23.466Z,1.40
2024-02-07T01:52:53.956Z,1.37
2024-02-07T01:55:23.203Z,1.10
2024-02-07T01:57:51.291Z,1.00
2024-02-07T02:00:19.577Z,1.70
2024-02-07T02:02:49.861Z,1.97
2024-02-07T02:05:18.005Z,1.50
2024-02-07T02:07:48.476Z,1.50
2024-02-07T02:10:16.985Z,1.07
2024-02-07T02:12:45.666Z,1.30
2024-02-07T02:15:14.242Z,1.50
2024-02-07T02:17:42.911Z,1.73
2024-02-07T02:20:11.784Z,1.40
2024-02-07T02:23:13.080Z,1.60
2024-02-07T02:26:14.046Z,1.47
2024-02-07T02:28:55.765Z,1.57
2024-02-07T02:31:26.427Z,1.83
2024-02-07T02:33:57.738Z,1.30
2024-02-07T02:36:25.892Z,1.53
2024-02-07T02:38:54.271Z,2.33
2024-02-07T02:41:23.862Z,1.50
2024-02-07T02:43:52.078Z,1.70
2024-02-07T02:46:21.430Z,1.60
2024-02-07T02:48:51.091Z,1.63
2024-02-07T02:51:19.522Z,1.80
2024-02-07T02:53:47.533Z,1.57
2024-02-07T02:56:16.473Z,1.80
2024-02-07T02:58:46.103Z,1.60
2024-02-07T03:01:15.160Z,2.20
2024-02-07T03:03:54.615Z,1.47
2024-02-07T03:06:31.289Z,1.37
2024-02-07T03:09:09.558Z,1.23
2024-02-07T03:11:38.212Z,1.40
2024-02-07T03:14:07.509Z,1.50
2024-02-07T03:16:37.401Z,1.63
2024-02-07T03:19:05.745Z,1.67
2024-02-07T03:21:35.305Z,1.73
2024-02-07T03:24:03.347Z,2.43
2024-02-07T03:26:31.408Z,2.27
2024-02-07T03:29:00.425Z,1.57
2024-02-07T03:31:29.875Z,1.90
2024-02-07T03:33:58.003Z,1.87
2024-02-07T03:36:28.021Z,2.47
2024-02-07T03:39:00.036Z,1.57
2024-02-07T03:41:28.131Z,1.93
2024-02-07T03:43:56.243Z,2.00
2024-02-07T03:46:25.263Z,2.03
2024-02-07T03:48:54.037Z,2.13
2024-02-07T03:51:28.795Z,1.70
2024-02-07T03:54:00.427Z,2.33
2024-02-07T03:56:30.213Z,2.20
2024-02-07T03:58:59.639Z,2.27
2024-02-07T04:01:28.992Z,2.10
2024-02-07T04:03:58.749Z,1.87
2024-02-07T04:06:27.377Z,2.27
2024-02-07T04:08:57.143Z,2.10
2024-02-07T04:11:25.662Z,1.83
2024-02-07T04:13:52.545Z,1.73
2024-02-07T04:16:37.978Z,2.00
2024-02-07T04:19:23.400Z,1.80
2024-02-07T04:22:09.282Z,2.37
2024-02-07T04:24:54.685Z,1.70
2024-02-07T04:27:41.694Z,1.93
2024-02-07T04:30:27.970Z,1.97
2024-02-07T04:33:13.458Z,1.90
2024-02-07T04:35:59.249Z,1.80
2024-02-07T04:38:44.701Z,2.10
2024-02-07T04:41:30.106Z,1.73
2024-02-07T04:44:17.161Z,1.93
2024-02-07T04:47:02.607Z,1.70
2024-02-07T04:49:47.918Z,1.37
2024-02-07T04:52:33.265Z,1.20
2024-02-07T04:55:18.667Z,1.27
2024-02-07T04:58:04.432Z,1.40
2024-02-07T05:00:51.192Z,1.53
2024-02-07T05:03:36.764Z,1.87
2024-02-07T05:06:22.757Z,1.50
2024-02-07T05:09:08.121Z,1.90
2024-02-07T05:11:53.533Z,1.33
2024-02-07T05:14:38.951Z,1.50
2024-02-07T05:17:08.379Z,1.60
2024-02-07T05:19:37.532Z,1.70
2024-02-07T05:22:05.994Z,2.30
2024-02-07T05:24:34.385Z,1.73
2024-02-07T05:27:03.585Z,2.07
2024-02-07T05:29:32.618Z,1.70
2024-02-07T05:32:00.801Z,1.87
2024-02-07T05:34:30.490Z,1.83
2024-02-07T05:36:59.355Z,1.60
2024-02-07T05:39:27.464Z,2.00
2024-02-07T05:41:55.677Z,1.90
2024-02-07T05:44:23.735Z,1.97
2024-02-07T05:46:51.771Z,3.07
2024-02-07T05:49:19.990Z,1.67
2024-02-07T05:52:01.654Z,2.10
2024-02-07T05:54:31.000Z,1.50
2024-02-07T05:56:59.167Z,1.40
2024-02-07T05:59:27.393Z,2.27
2024-02-07T06:01:55.515Z,2.03
2024-02-07T06:04:23.694Z,1.80
2024-02-07T06:06:53.351Z,1.77
2024-02-07T06:09:21.488Z,2.00
2024-02-07T06:11:50.525Z,1.40
2024-02-07T06:14:18.593Z,2.13
2024-02-07T06:16:46.750Z,1.63
2024-02-07T06:19:15.029Z,2.03
2024-02-07T06:21:43.122Z,1.57
2024-02-07T06:24:12.684Z,1.87
2024-02-07T06:26:40.753Z,2.30
2024-02-07T06:29:08.759Z,1.40
2024-02-07T06:31:37.541Z,1.93
2024-02-07T06:34:05.798Z,1.73
2024-02-07T06:36:34.185Z,1.60
2024-02-07T06:39:02.297Z,1.83
2024-02-07T06:41:31.761Z,1.70
2024-02-07T06:44:00.261Z,1.50
2024-02-07T06:46:30.683Z,1.50
2024-02-07T06:48:58.903Z,1.87
2024-02-07T06:51:27.141Z,1.33
2024-02-07T06:53:55.180Z,1.17
2024-02-07T06:56:23.276Z,1.27
2024-02-07T06:58:52.749Z,1.33
2024-02-07T07:01:20.908Z,1.50
2024-02-07T07:03:51.619Z,1.80
2024-02-07T07:06:19.823Z,1.37
2024-02-07T07:08:47.886Z,1.40
2024-02-07T07:11:15.964Z,1.60
2024-02-07T07:13:44.073Z,2.00
2024-02-07T07:16:13.615Z,1.37
2024-02-07T07:18:41.729Z,1.70
2024-02-07T07:21:09.798Z,1.53
2024-02-07T07:23:37.877Z,1.80
2024-02-07T07:26:06.036Z,2.53
2024-02-07T07:28:34.214Z,5.07
2024-02-07T07:31:02.440Z,2.77
2024-02-07T07:33:31.840Z,2.40
2024-02-07T07:35:59.933Z,2.00
2024-02-07T07:38:27.998Z,3.63
2024-02-07T07:40:56.036Z,3.33
2024-02-07T07:43:24.135Z,3.63
2024-02-07T07:45:52.223Z,3.10
2024-02-07T07:48:24.086Z,2.83
2024-02-07T07:50:55.172Z,2.40
2024-02-07T07:53:23.298Z,3.33
2024-02-07T07:55:51.412Z,2.70
2024-02-07T07:58:19.579Z,2.37
2024-02-07T08:00:51.837Z,2.13
2024-02-07T08:03:20.330Z,2.20
2024-02-07T08:05:48.882Z,2.60
2024-02-07T08:08:18.625Z,2.07
2024-02-07T08:10:48.041Z,2.30
2024-02-07T08:13:16.301Z,1.93
2024-02-07T08:15:45.263Z,2.00
2024-02-07T08:18:13.485Z,2.30
2024-02-07T08:20:41.611Z,2.40
2024-02-07T08:23:09.670Z,2.47
2024-02-07T08:25:39.356Z,2.50
2024-02-07T08:28:07.874Z,2.50
2024-02-07T08:30:35.909Z,2.13
2024-02-07T08:33:04.085Z,2.33
2024-02-07T08:35:32.412Z,1.90
2024-02-07T08:38:01.171Z,2.37
2024-02-07T08:40:29.598Z,2.07
2024-02-07T08:43:00.122Z,2.23
2024-02-07T08:45:28.164Z,1.57
2024-02-07T08:47:56.380Z,2.50
2024-02-07T08:50:24.458Z,2.67
2024-02-07T08:52:52.498Z,2.30
2024-02-07T08:55:20.583Z,1.53
2024-02-07T08:57:48.642Z,2.23
2024-02-07T09:00:19.149Z,1.80
2024-02-07T09:02:51.195Z,1.97
2024-02-07T09:05:21.122Z,1.70
2024-02-07T09:07:50.107Z,2.57
2024-02-07T09:10:18.501Z,2.20
2024-02-07T09:12:46.568Z,1.40
2024-02-07T09:15:14.700Z,2.10
2024-02-07T09:17:44.196Z,1.50
2024-02-07T09:20:14.291Z,1.73
2024-02-07T09:22:43.253Z,1.47
2024-02-07T09:25:11.433Z,1.43
2024-02-07T09:27:41.935Z,1.80
2024-02-07T09:30:13.269Z,1.60
2024-02-07T09:32:44.971Z,1.30
2024-02-07T09:35:13.620Z,1.37
2024-02-07T09:37:42.920Z,1.77
2024-02-07T09:40:12.534Z,2.07
2024-02-07T09:42:43.357Z,1.17
2024-02-07T09:45:14.170Z,1.80
2024-02-07T09:47:50.419Z,1.30
2024-02-07T09:50:19.613Z,1.77
2024-02-07T09:52:48.924Z,1.47
2024-02-07T09:55:17.557Z,1.40
2024-02-07T09:57:45.644Z,1.30
2024-02-07T10:00:14.658Z,1.50
2024-02-07T10:02:48.420Z,1.60
2024-02-07T10:05:20.116Z,1.30
2024-02-07T10:07:52.725Z,1.53
2024-02-07T10:10:21.588Z,2.00
2024-02-07T10:12:49.937Z,3.27
2024-02-07T10:15:18.285Z,2.30
2024-02-07T10:17:47.911Z,1.77
2024-02-07T10:20:17.055Z,2.07
2024-02-07T10:22:45.629Z,1.73
2024-02-07T10:25:15.609Z,2.30
2024-02-07T10:27:44.169Z,2.03
2024-02-07T10:30:14.988Z,2.00
2024-02-07T10:32:46.615Z,2.10
2024-02-07T10:35:19.695Z,1.70
2024-02-07T10:37:48.060Z,1.60
2024-02-07T10:40:16.334Z,2.00
2024-02-07T10:42:44.398Z,1.90
2024-02-07T10:45:14.879Z,1.30
2024-02-07T10:47:45.276Z,1.90
2024-02-07T10:50:13.584Z,1.70
2024-02-07T10:52:43.677Z,1.70
2024-02-07T10:55:13.696Z,1.13
2024-02-07T10:57:46.618Z,1.90
2024-02-07T11:00:16.253Z,2.13
2024-02-07T11:02:47.222Z,1.50
2024-02-07T11:05:15.977Z,1.90
2024-02-07T11:07:45.742Z,1.37
2024-02-07T11:10:17.483Z,1.30
2024-02-07T11:12:46.171Z,1.23
2024-02-07T11:15:14.209Z,1.90
2024-02-07T11:17:42.371Z,2.03
2024-02-07T11:20:12.735Z,1.30
2024-02-07T11:22:43.825Z,1.37
2024-02-07T11:25:17.140Z,1.30
2024-02-07T11:27:45.341Z,1.53
2024-02-07T11:30:14.156Z,1.40
2024-02-07T11:32:42.275Z,2.40
2024-02-07T11:35:11.706Z,1.60
2024-02-07T11:37:40.677Z,1.50
2024-02-07T11:40:11.526Z,1.77
2024-02-07T11:42:42.123Z,1.50
2024-02-07T11:45:13.968Z,1.57
2024-02-07T11:47:44.323Z,1.83
2024-02-07T11:50:16.111Z,1.63
2024-02-07T11:52:44.925Z,1.47
2024-02-07T11:55:15.738Z,1.33
2024-02-07T11:57:46.361Z,1.20
2024-02-07T12:00:16.912Z,1.33
2024-02-07T12:02:48.136Z,1.20
2024-02-07T12:05:17.165Z,1.53
2024-02-07T12:07:46.100Z,1.30
2024-02-07T12:10:14.184Z,1.57
2024-02-07T12:12:42.254Z,1.37
2024-02-07T12:15:12.172Z,1.87
2024-02-07T12:17:40.340Z,1.43
2024-02-07T12:20:09.486Z,1.40
2024-02-07T12:22:37.857Z,1.73
2024-02-07T12:25:07.229Z,1.30
2024-02-07T12:27:35.730Z,1.20
2024-02-07T12:30:03.826Z,1.60
2024-02-07T12:32:35.920Z,1.67
2024-02-07T12:35:07.511Z,1.10
2024-02-07T12:37:36.193Z,1.50
2024-02-07T12:40:04.904Z,1.20
2024-02-07T12:42:32.980Z,1.33
2024-02-07T12:45:02.340Z,1.20
2024-02-07T12:47:30.442Z,1.33
2024-02-07T12:49:59.932Z,1.57
2024-02-07T12:52:28.143Z,1.63
2024-02-07T12:54:56.262Z,1.23
2024-02-07T12:57:25.144Z,1.13
2024-02-07T12:59:53.532Z,1.60
2024-02-07T13:02:21.928Z,1.60
2024-02-07T13:04:50.156Z,1.40
2024-02-07T13:07:21.090Z,1.50
2024-02-07T13:09:49.726Z,1.60
2024-02-07T13:12:23.862Z,1.87
2024-02-07T13:14:59.894Z,1.57
2024-02-07T13:17:28.099Z,1.30
2024-02-07T13:19:56.300Z,1.40
2024-02-07T13:22:25.927Z,1.20
2024-02-07T13:24:54.069Z,1.50
2024-02-07T13:27:22.104Z,1.27
2024-02-07T13:29:50.146Z,1.83
2024-02-07T13:32:23.179Z,1.13
2024-02-07T13:34:51.760Z,1.40
2024-02-07T13:37:19.955Z,1.07
2024-02-07T13:39:49.379Z,1.00
2024-02-07T13:42:20.098Z,1.00
2024-02-07T13:44:50.115Z,1.27
2024-02-07T13:47:19.574Z,1.40
2024-02-07T13:49:48.557Z,1.50
2024-02-07T13:52:16.893Z,1.13
2024-02-07T13:54:45.138Z,1.00
2024-02-07T13:57:14.567Z,1.37
2024-02-07T13:59:42.591Z,1.60
2024-02-07T14:02:11.551Z,1.73
2024-02-07T14:04:39.665Z,1.37
2024-02-07T14:07:07.761Z,1.63
2024-02-07T14:09:35.873Z,1.43
2024-02-07T14:12:03.886Z,1.50
2024-02-07T14:14:33.921Z,1.03
2024-02-07T14:17:02.021Z,1.60
2024-02-07T14:19:30.212Z,1.20
2024-02-07T14:22:00.588Z,1.57
2024-02-07T14:24:31.481Z,1.50
2024-02-07T14:26:59.506Z,1.97
2024-02-07T14:29:27.646Z,1.70
2024-02-07T14:31:57.994Z,1.17
2024-02-07T14:34:26.283Z,1.50
2024-02-07T14:36:54.349Z,1.70
2024-02-07T14:39:24.334Z,0.97
2024-02-07T14:41:52.426Z,0.97
2024-02-07T14:44:22.361Z,1.37
2024-02-07T14:46:50.804Z,1.40
2024-02-07T14:49:22.006Z,1.13
2024-02-07T14:51:50.172Z,1.20
2024-02-07T14:54:18.403Z,1.03
2024-02-07T14:56:46.532Z,1.27
2024-02-07T14:59:18.139Z,0.90
2024-02-07T15:01:46.914Z,1.47
2024-02-07T15:04:15.035Z,1.23
2024-02-07T15:06:44.699Z,1.73
2024-02-07T15:09:12.691Z,1.23
2024-02-07T15:11:40.644Z,1.57
2024-02-07T15:14:08.734Z,1.17
2024-02-07T15:16:38.177Z,1.90
2024-02-07T15:19:06.292Z,1.37
2024-02-07T15:21:34.292Z,1.70
2024-02-07T15:24:03.631Z,1.80
2024-02-07T15:26:31.539Z,1.70
2024-02-07T15:28:59.477Z,1.00
2024-02-07T15:31:27.475Z,1.20
2024-02-07T15:33:55.479Z,1.20
2024-02-07T15:36:23.565Z,1.40
2024-02-07T15:38:51.623Z,1.43
2024-02-07T15:41:20.949Z,1.67
2024-02-07T15:43:49.123Z,1.13
2024-02-07T15:46:18.049Z,1.33
2024-02-07T15:48:54.926Z,1.10
2024-02-07T15:51:30.512Z,1.50
2024-02-07T15:53:58.437Z,1.70
2024-02-07T15:56:27.835Z,1.40
2024-02-07T15:58:55.869Z,1.50
2024-02-07T16:01:33.685Z,1.60
2024-02-07T16:04:09.741Z,1.87
2024-02-07T16:06:37.772Z,2.13
2024-02-07T16:09:05.823Z,1.80
2024-02-07T16:11:35.121Z,1.47
2024-02-07T16:14:03.116Z,1.60
2024-02-07T16:16:32.277Z,1.43
2024-02-07T16:19:00.353Z,1.60
2024-02-07T16:21:28.407Z,1.53
2024-02-07T16:23:56.309Z,1.57
2024-02-07T16:26:24.252Z,1.43
2024-02-07T16:28:53.993Z,1.40
2024-02-07T16:31:22.287Z,1.40
2024-02-07T16:33:50.312Z,1.57
2024-02-07T16:36:18.338Z,1.37
2024-02-07T16:38:46.727Z,1.30
2024-02-07T16:41:14.689Z,1.60
2024-02-07T16:43:42.679Z,1.63
2024-02-07T16:46:12.075Z,1.70
2024-02-07T16:48:40.237Z,1.30
2024-02-07T16:51:08.512Z,1.70
2024-02-07T16:53:36.833Z,1.63
2024-02-07T16:56:05.304Z,1.90
2024-02-07T16:58:33.398Z,2.20
2024-02-07T17:01:01.493Z,2.30
2024-02-07T17:03:30.887Z,2.07
2024-02-07T17:05:58.932Z,2.37
2024-02-07T17:08:30.654Z,2.50
2024-02-07T17:10:58.858Z,2.43
2024-02-07T17:13:27.024Z,2.77
2024-02-07T17:15:55.077Z,2.33
2024-02-07T17:18:23.250Z,2.57
2024-02-07T17:20:52.783Z,3.10
2024-02-07T17:23:20.800Z,2.73
2024-02-07T17:25:49.175Z,2.33
2024-02-07T17:28:17.313Z,2.80
2024-02-07T17:30:45.478Z,2.83
2024-02-07T17:33:13.637Z,3.10
2024-02-07T17:35:42.076Z,2.60
2024-02-07T17:38:11.605Z,2.93
2024-02-07T17:40:39.705Z,2.63
2024-02-07T17:43:08.585Z,2.80
2024-02-07T17:45:37.209Z,2.60
2024-02-07T17:48:05.965Z,2.97
2024-02-07T17:50:35.658Z,2.83
2024-02-07T17:53:05.188Z,2.93
2024-02-07T17:55:34.958Z,2.70
2024-02-07T17:58:03.026Z,2.70
2024-02-07T18:00:31.055Z,2.60
2024-02-07T18:02:59.094Z,3.00
2024-02-07T18:05:28.154Z,2.80
2024-02-07T18:07:57.924Z,2.93
2024-02-07T18:10:26.222Z,2.80
2024-02-07T18:12:56.817Z,2.67
2024-02-07T18:15:24.907Z,3.00
2024-02-07T18:17:53.011Z,3.77
2024-02-07T18:20:21.406Z,2.97
2024-02-07T18:22:49.609Z,3.00
2024-02-07T18:25:17.779Z,3.10
2024-02-07T18:27:45.816Z,3.23
2024-02-07T18:30:15.767Z,3.53
2024-02-07T18:32:43.932Z,2.80
2024-02-07T18:35:12.075Z,3.10
2024-02-07T18:37:40.284Z,3.30
2024-02-07T18:40:09.428Z,3.07
2024-02-07T18:42:40.108Z,3.37
2024-02-07T18:45:09.025Z,3.43
2024-02-07T18:47:38.529Z,3.03
2024-02-07T18:50:07.541Z,3.50
2024-02-07T18:52:39.283Z,3.40
2024-02-07T18:55:08.218Z,3.20
2024-02-07T18:57:39.324Z,3.20
2024-02-07T19:00:09.585Z,3.47
2024-02-07T19:02:39.384Z,3.50
2024-02-07T19:05:07.903Z,3.60
2024-02-07T19:07:36.446Z,3.37
2024-02-07T19:10:04.980Z,3.53
2024-02-07T19:12:32.993Z,2.93
2024-02-07T19:15:01.026Z,3.00
2024-02-07T19:17:29.167Z,3.00
2024-02-07T19:19:58.722Z,2.83
2024-02-07T19:22:26.778Z,2.57
2024-02-07T19:24:55.127Z,2.67
2024-02-07T19:27:23.170Z,2.97
2024-02-07T19:29:51.281Z,2.80
2024-02-07T19:32:20.380Z,3.00
2024-02-07T19:34:49.808Z,2.47
2024-02-07T19:37:19.483Z,3.17
2024-02-07T19:39:47.606Z,2.13
2024-02-07T19:42:15.677Z,2.70
2024-02-07T19:44:43.747Z,2.83
2024-02-07T19:47:11.830Z,2.40
2024-02-07T19:49:40.116Z,2.70
2024-02-07T19:52:10.011Z,2.37
2024-02-07T19:54:39.458Z,2.57
2024-02-07T19:57:07.543Z,2.60
2024-02-07T19:59:35.574Z,2.50
2024-02-07T20:02:03.627Z,2.17
2024-02-07T20:04:31.728Z,2.27
2024-02-07T20:06:59.788Z,2.10
2024-02-07T20:09:27.861Z,1.90
2024-02-07T20:11:57.326Z,1.97
2024-02-07T20:14:26.344Z,2.17
2024-02-07T20:16:54.840Z,2.00
2024-02-07T20:19:22.992Z,2.60
2024-02-07T20:21:51.378Z,1.93
2024-02-07T20:24:19.489Z,2.50
2024-02-07T20:26:47.487Z,2.13
2024-02-07T20:29:16.939Z,2.13
2024-02-07T20:31:46.034Z,1.70
2024-02-07T20:34:14.164Z,2.03
2024-02-07T20:36:44.078Z,2.17
2024-02-07T20:39:13.781Z,2.07
2024-02-07T20:41:42.508Z,1.90
2024-02-07T20:44:13.466Z,2.57
2024-02-07T20:46:43.036Z,2.13
2024-02-07T20:49:11.150Z,2.30
2024-02-07T20:51:39.179Z,1.87
2024-02-07T20:54:07.343Z,1.97
2024-02-07T20:56:36.383Z,1.67
2024-02-07T20:59:04.426Z,1.77
2024-02-07T21:01:32.587Z,2.00
2024-02-07T21:04:02.128Z,2.13
2024-02-07T21:06:30.746Z,2.20
2024-02-07T21:08:58.917Z,1.50
2024-02-07T21:11:26.985Z,1.70
2024-02-07T21:13:55.125Z,1.60
2024-02-07T21:16:23.301Z,1.53
2024-02-07T21:18:51.737Z,1.80
2024-02-07T21:21:21.224Z,1.90
2024-02-07T21:23:49.307Z,1.73
2024-02-07T21:26:17.454Z,1.87
2024-02-07T21:28:45.532Z,1.87
2024-02-07T21:31:14.314Z,2.00
2024-02-07T21:33:42.557Z,2.07
2024-02-07T21:36:10.785Z,1.80
2024-02-07T21:38:40.342Z,1.67
2024-02-07T21:41:08.517Z,1.63
2024-02-07T21:43:36.660Z,1.43
2024-02-07T21:46:06.857Z,1.70
2024-02-07T21:48:34.943Z,1.70
2024-02-07T21:51:03.014Z,1.43
2024-02-07T21:53:31.016Z,1.27
2024-02-07T21:56:00.570Z,1.90
2024-02-07T21:58:28.684Z,1.70
2024-02-07T22:00:56.769Z,1.73
2024-02-07T22:03:24.816Z,2.37
2024-02-07T22:05:52.892Z,1.70
2024-02-07T22:08:21.106Z,1.67
2024-02-07T22:10:49.199Z,1.50
2024-02-07T22:13:18.624Z,1.73
2024-02-07T22:15:46.670Z,1.90
2024-02-07T22:18:14.841Z,1.63
2024-02-07T22:20:42.920Z,1.70
2024-02-07T22:23:11.050Z,1.20
2024-02-07T22:25:39.220Z,2.03
2024-02-07T22:28:07.625Z,1.83
2024-02-07T22:30:37.080Z,1.60
2024-02-07T22:33:05.511Z,1.63
2024-02-07T22:35:33.561Z,1.40
2024-02-07T22:38:03.448Z,1.83
2024-02-07T22:40:31.610Z,2.03
2024-02-07T22:43:00.046Z,1.53
2024-02-07T22:45:28.833Z,2.10
2024-02-07T22:47:58.459Z,1.60
2024-02-07T22:50:26.845Z,1.43
2024-02-07T22:52:54.946Z,2.23
2024-02-07T22:55:23.084Z,1.90
2024-02-07T22:57:51.267Z,1.93
2024-02-07T23:00:21.398Z,1.83
2024-02-07T23:02:49.687Z,2.20
2024-02-07T23:05:19.192Z,1.90
2024-02-07T23:07:47.380Z,2.03
2024-02-07T23:10:15.412Z,1.50
2024-02-07T23:12:46.126Z,1.70
2024-02-07T23:15:14.455Z,1.77
2024-02-07T23:17:42.575Z,1.70
2024-02-07T23:20:11.213Z,1.83
2024-02-07T23:22:40.763Z,1.83
2024-02-07T23:25:09.879Z,1.50
2024-02-07T23:27:37.938Z,1.63
2024-02-07T23:30:06.649Z,1.60
2024-02-07T23:32:34.754Z,1.90
2024-02-07T23:35:02.971Z,1.70
2024-02-07T23:37:31.089Z,1.97
2024-02-07T23:40:00.571Z,1.83
2024-02-07T23:42:28.956Z,1.57
2024-02-07T23:44:56.968Z,2.07
2024-02-07T23:47:25.376Z,1.70
2024-02-07T23:49:53.536Z,1.87
2024-02-07T23:52:21.596Z,1.80
2024-02-07T23:54:50.405Z,1.87
2024-02-07T23:57:19.882Z,1.80
2024-02-07T23:59:47.967Z,2.07
